createdAt,value
2018-05-29T00:02:18.981Z,64.62
2018-05-29T00:04:48.239Z,65.13
2018-05-29T00:07:16.922Z,66.06
2018-05-29T00:09:45.619Z,67.06
2018-05-29T00:12:14.265Z,66.90
2018-05-29T00:14:44.312Z,65.86
2018-05-29T00:17:13.832Z,67.09
2018-05-29T00:19:42.925Z,67.10
2018-05-29T00:22:12.070Z,66.46
2018-05-29T00:24:41.001Z,66.54
2018-05-29T00:27:17.142Z,66.52
2018-05-29T00:29:46.437Z,65.85
2018-05-29T00:32:15.723Z,67.47
2018-05-29T00:34:45.187Z,67.89
2018-05-29T00:37:14.032Z,67.83
2018-05-29T00:39:50.701Z,68.09
2018-05-29T00:42:19.862Z,68.72
2018-05-29T00:44:48.556Z,68.68
2018-05-29T00:47:18.618Z,69.06
2018-05-29T00:49:48.231Z,69.32
2018-05-29T00:52:17.981Z,69.22
2018-05-29T00:55:26.125Z,69.19
2018-05-29T00:57:54.806Z,69.27
2018-05-29T01:00:28.228Z,67.98
2018-05-29T01:03:14.630Z,67.67
2018-05-29T01:05:44.345Z,68.83
2018-05-29T01:08:13.215Z,68.28
2018-05-29T01:10:42.454Z,68.49
2018-05-29T01:16:01.104Z,67.53
2018-05-29T01:18:45.989Z,68.53
2018-05-29T01:21:20.404Z,68.76
2018-05-29T01:23:53.885Z,66.77
2018-05-29T01:26:34.292Z,68.11
2018-05-29T01:29:20.991Z,66.42
2018-05-29T01:31:53.314Z,67.14
2018-05-29T01:34:27.772Z,67.32
2018-05-29T01:39:49.036Z,68.96
2018-05-29T01:42:21.412Z,69.20
2018-05-29T01:44:57.090Z,69.41
2018-05-29T01:47:39.059Z,69.41
2018-05-29T01:55:52.162Z,69.16
2018-05-29T01:58:24.415Z,69.54
2018-05-29T02:00:53.120Z,68.02
2018-05-29T02:03:22.778Z,69.74
2018-05-29T02:05:51.830Z,69.49
2018-05-29T02:08:20.505Z,69.24
2018-05-29T02:10:49.225Z,69.03
2018-05-29T02:13:17.894Z,69.31
2018-05-29T02:15:46.582Z,67.77
2018-05-29T02:18:15.220Z,69.05
2018-05-29T02:20:43.925Z,69.92
2018-05-29T02:23:12.603Z,70.08
2018-05-29T02:25:41.313Z,70.48
2018-05-29T02:28:09.963Z,70.52
2018-05-29T02:30:38.620Z,70.15
2018-05-29T02:33:07.309Z,70.36
2018-05-29T02:35:37.986Z,68.85
2018-05-29T02:38:10.834Z,70.64
2018-05-29T02:40:39.964Z,70.90
2018-05-29T02:43:09.333Z,70.61
2018-05-29T02:45:38.351Z,70.90
2018-05-29T02:48:07.032Z,70.75
2018-05-29T02:50:35.651Z,71.45
2018-05-29T02:53:05.101Z,71.01
2018-05-29T02:55:33.788Z,71.20
2018-05-29T02:58:02.511Z,70.87
2018-05-29T03:00:31.729Z,70.73
2018-05-29T03:03:00.688Z,70.90
2018-05-29T03:05:32.008Z,70.72
2018-05-29T03:08:00.689Z,70.61
2018-05-29T03:10:29.339Z,70.57
2018-05-29T03:13:00.512Z,68.81
2018-05-29T03:15:32.191Z,69.92
2018-05-29T03:18:00.877Z,70.11
2018-05-29T03:20:30.023Z,70.37
2018-05-29T03:22:59.307Z,70.32
2018-05-29T03:25:28.029Z,70.64
2018-05-29T03:28:00.222Z,70.34
2018-05-29T03:30:31.842Z,68.59
2018-05-29T03:33:00.678Z,69.98
2018-05-29T03:35:29.616Z,69.80
2018-05-29T03:37:58.650Z,70.69
2018-05-29T03:40:27.374Z,70.56
2018-05-29T03:42:56.414Z,70.82
2018-05-29T03:45:27.838Z,70.05
2018-05-29T03:47:59.331Z,68.11
2018-05-29T03:50:28.643Z,69.14
2018-05-29T03:52:57.502Z,69.95
2018-05-29T03:55:26.191Z,70.07
2018-05-29T03:57:56.153Z,69.65
2018-05-29T04:00:31.740Z,69.42
2018-05-29T04:03:01.192Z,69.54
2018-05-29T04:05:30.009Z,69.78
2018-05-29T04:07:59.091Z,67.58
2018-05-29T04:10:28.035Z,68.75
2018-05-29T04:12:57.382Z,68.87
2018-05-29T04:15:26.451Z,68.54
2018-05-29T04:17:58.064Z,68.64
2018-05-29T04:20:29.640Z,68.52
2018-05-29T04:22:58.783Z,68.63
2018-05-29T04:25:27.950Z,66.47
2018-05-29T04:30:49.812Z,68.04
2018-05-29T04:33:20.370Z,68.23
2018-05-29T04:35:48.884Z,68.15
2018-05-29T04:38:18.175Z,65.93
2018-05-29T04:40:47.052Z,64.85
2018-05-29T04:43:15.666Z,66.37
2018-05-29T04:45:47.388Z,66.60
2018-05-29T04:48:16.628Z,63.74
2018-05-29T04:50:46.624Z,65.16
2018-05-29T04:53:15.722Z,65.22
2018-05-29T04:55:44.799Z,62.71
2018-05-29T04:58:13.443Z,64.03
2018-05-29T05:00:42.673Z,64.40
2018-05-29T05:03:13.778Z,64.34
2018-05-29T05:05:42.624Z,64.19
2018-05-29T05:08:13.690Z,61.46
2018-05-29T05:10:51.687Z,62.96
2018-05-29T05:13:20.818Z,63.37
2018-05-29T05:15:49.688Z,63.30
2018-05-29T05:18:21.884Z,63.17
2018-05-29T05:20:50.919Z,63.76
2018-05-29T05:23:20.198Z,63.47
2018-05-29T05:25:49.366Z,63.02
2018-05-29T05:28:18.589Z,62.70
2018-05-29T05:30:47.256Z,60.09
2018-05-29T05:33:15.942Z,61.22
2018-05-29T05:35:44.881Z,61.62
2018-05-29T05:38:18.295Z,61.41
2018-05-29T05:40:49.527Z,61.48
2018-05-29T05:46:14.959Z,58.06
2018-05-29T05:48:49.364Z,59.45
2018-05-29T05:51:20.317Z,59.29
2018-05-29T05:53:51.032Z,59.03
2018-05-29T05:56:24.447Z,58.88
2018-05-29T05:58:56.239Z,58.65
2018-05-29T06:01:28.405Z,58.15
2018-05-29T06:06:49.467Z,57.24
2018-05-29T06:12:11.477Z,56.66
2018-05-29T06:14:43.069Z,55.92
2018-05-29T06:17:15.261Z,55.96
2018-05-29T06:19:47.592Z,55.21
2018-05-29T06:22:22.363Z,55.08
2018-05-29T06:25:01.198Z,54.75
2018-05-29T06:27:32.321Z,54.09
2018-05-29T06:30:05.582Z,53.50
2018-05-29T06:32:34.858Z,53.00
2018-05-29T06:35:06.517Z,52.64
2018-05-29T06:37:38.120Z,51.90
2018-05-29T06:40:09.358Z,52.10
2018-05-29T06:42:40.904Z,51.66
2018-05-29T06:45:21.042Z,51.09
2018-05-29T06:50:40.977Z,50.10
2018-05-29T06:53:11.969Z,50.03
2018-05-29T07:01:34.481Z,48.66
2018-05-29T07:04:09.195Z,48.54
2018-05-29T07:06:42.250Z,47.90
2018-05-29T07:09:12.997Z,47.70
2018-05-29T07:11:45.984Z,47.21
2018-05-29T07:14:27.974Z,47.48
2018-05-29T07:16:59.123Z,47.61
2018-05-29T07:19:29.978Z,43.32
2018-05-29T07:21:59.361Z,45.44
2018-05-29T07:24:29.416Z,46.07
2018-05-29T07:27:00.754Z,45.86
2018-05-29T07:29:30.570Z,45.36
2018-05-29T07:32:06.889Z,44.88
2018-05-29T07:34:39.499Z,45.45
2018-05-29T07:37:12.549Z,44.80
2018-05-29T07:39:43.356Z,41.61
2018-05-29T07:42:17.355Z,43.78
2018-05-29T07:44:48.646Z,43.57
2018-05-29T07:47:27.127Z,43.70
2018-05-29T07:50:09.708Z,39.71
2018-05-29T07:52:40.886Z,41.88
2018-05-29T07:55:13.666Z,42.64
2018-05-29T07:57:45.899Z,42.34
2018-05-29T08:00:15.334Z,42.16
2018-05-29T08:02:47.130Z,42.48
2018-05-29T08:05:23.056Z,42.60
2018-05-29T08:07:52.447Z,42.48
2018-05-29T08:10:22.258Z,41.97
2018-05-29T08:12:53.765Z,37.87
2018-05-29T08:15:24.908Z,40.49
2018-05-29T08:18:04.432Z,41.19
2018-05-29T08:20:33.683Z,40.97
2018-05-29T08:23:03.686Z,40.84
2018-05-29T08:25:33.089Z,40.60
2018-05-29T08:28:07.896Z,40.41
2018-05-29T08:30:39.718Z,40.43
2018-05-29T08:33:10.674Z,40.18
2018-05-29T08:35:40.049Z,36.90
2018-05-29T08:38:10.481Z,39.39
2018-05-29T08:40:44.285Z,39.56
2018-05-29T08:43:13.663Z,39.40
2018-05-29T08:45:43.003Z,39.81
2018-05-29T08:48:14.560Z,36.23
2018-05-29T08:50:43.845Z,38.16
2018-05-29T08:53:13.752Z,38.33
2018-05-29T08:55:47.877Z,38.46
2018-05-29T08:58:17.398Z,34.52
2018-05-29T09:00:47.076Z,36.96
2018-05-29T09:03:17.823Z,37.49
2018-05-29T09:05:47.985Z,36.85
2018-05-29T09:08:21.112Z,37.38
2018-05-29T09:10:50.344Z,37.45
2018-05-29T09:13:23.042Z,37.03
2018-05-29T09:15:59.647Z,37.29
2018-05-29T09:18:34.232Z,37.26
2018-05-29T09:23:53.725Z,36.91
2018-05-29T09:26:24.389Z,37.36
2018-05-29T09:28:57.923Z,36.94
2018-05-29T09:31:32.752Z,36.71
2018-05-29T09:34:01.927Z,37.07
2018-05-29T09:36:36.906Z,36.28
2018-05-29T09:39:06.299Z,36.12
2018-05-29T09:41:35.460Z,36.42
2018-05-29T09:44:06.263Z,36.68
2018-05-29T09:46:35.554Z,35.99
2018-05-29T09:49:05.749Z,36.02
2018-05-29T09:51:37.366Z,36.37
2018-05-29T09:54:08.131Z,36.11
2018-05-29T09:56:37.425Z,32.60
2018-05-29T09:59:09.670Z,34.20
2018-05-29T10:01:39.953Z,34.63
2018-05-29T10:04:09.322Z,32.07
2018-05-29T10:06:38.421Z,33.62
2018-05-29T10:09:07.703Z,34.38
2018-05-29T10:14:25.770Z,33.84
2018-05-29T10:17:08.890Z,33.93
2018-05-29T10:19:38.929Z,34.09
2018-05-29T10:24:57.922Z,34.21
2018-05-29T10:27:28.600Z,34.48
2018-05-29T10:29:57.865Z,33.77
2018-05-29T10:32:33.120Z,31.64
2018-05-29T10:40:40.569Z,33.13
2018-05-29T10:43:12.080Z,33.12
2018-05-29T10:45:41.380Z,30.30
2018-05-29T10:48:13.094Z,29.53
2018-05-29T10:50:53.758Z,31.20
2018-05-29T10:53:24.288Z,31.81
2018-05-29T10:58:48.769Z,29.62
2018-05-29T11:01:18.725Z,32.23
2018-05-29T11:03:53.779Z,32.42
2018-05-29T11:06:24.072Z,31.93
2018-05-29T11:09:09.636Z,32.29
2018-05-29T11:11:43.010Z,31.92
2018-05-29T11:14:12.966Z,32.25
2018-05-29T11:16:49.788Z,31.39
2018-05-29T11:19:19.745Z,31.44
2018-05-29T11:21:48.922Z,32.02
2018-05-29T11:24:22.011Z,32.04
2018-05-29T11:26:54.522Z,31.69
2018-05-29T11:29:26.483Z,31.74
2018-05-29T11:31:55.822Z,31.48
2018-05-29T11:34:24.950Z,28.44
2018-05-29T11:36:55.506Z,30.23
2018-05-29T11:39:26.857Z,30.77
2018-05-29T11:41:56.190Z,31.02
2018-05-29T11:44:26.459Z,31.07
2018-05-29T11:46:57.630Z,31.13
2018-05-29T11:52:16.826Z,30.82
2018-05-29T11:54:46.112Z,31.03
2018-05-29T11:57:15.435Z,30.42
2018-05-29T11:59:46.237Z,27.20
2018-05-29T12:02:15.654Z,29.23
2018-05-29T12:04:45.328Z,29.36
2018-05-29T12:07:18.430Z,29.10
2018-05-29T12:09:47.622Z,25.69
2018-05-29T12:12:26.236Z,27.62
2018-05-29T12:14:55.423Z,26.24
2018-05-29T12:17:27.631Z,28.46
2018-05-29T12:19:56.847Z,28.88
2018-05-29T12:22:33.985Z,28.27
2018-05-29T12:25:03.560Z,28.27
2018-05-29T12:27:34.326Z,28.33
2018-05-29T12:30:03.604Z,27.82
2018-05-29T12:32:33.763Z,28.28
2018-05-29T12:35:05.654Z,27.55
2018-05-29T12:37:37.344Z,28.02
2018-05-29T12:40:06.592Z,27.88
2018-05-29T12:42:37.275Z,27.65
2018-05-29T12:45:06.336Z,25.67
2018-05-29T12:47:36.931Z,27.18
2018-05-29T12:50:06.051Z,26.99
2018-05-29T12:52:36.443Z,27.38
2018-05-29T12:55:06.106Z,25.47
2018-05-29T12:57:42.290Z,27.24
2018-05-29T13:00:12.555Z,27.34
2018-05-29T13:02:45.930Z,27.26
2018-05-29T13:05:17.849Z,24.67
2018-05-29T13:07:47.197Z,24.21
2018-05-29T13:10:17.711Z,25.97
2018-05-29T13:12:55.270Z,26.40
2018-05-29T13:15:26.794Z,25.96
2018-05-29T13:17:57.503Z,25.99
2018-05-29T13:20:26.707Z,26.35
2018-05-29T13:23:11.983Z,26.29
2018-05-29T13:25:41.539Z,26.52
2018-05-29T13:28:12.147Z,26.19
2018-05-29T13:30:44.466Z,26.19
2018-05-29T13:33:14.151Z,23.34
2018-05-29T13:35:43.302Z,24.63
2018-05-29T13:38:15.562Z,24.55
2018-05-29T13:40:48.128Z,24.65
2018-05-29T13:43:20.023Z,24.81
2018-05-29T13:45:49.677Z,24.80
2018-05-29T13:48:19.805Z,24.79
2018-05-29T13:50:49.058Z,24.53
2018-05-29T13:53:18.524Z,24.63
2018-05-29T13:55:49.661Z,22.62
2018-05-29T13:58:25.200Z,23.67
2018-05-29T14:01:01.093Z,24.08
2018-05-29T14:03:30.542Z,24.10
2018-05-29T14:05:59.946Z,22.17
2018-05-29T14:08:30.791Z,23.58
2018-05-29T14:11:01.526Z,23.24
2018-05-29T14:16:25.493Z,23.14
2018-05-29T14:18:59.371Z,23.39
2018-05-29T14:21:32.393Z,23.34
2018-05-29T14:24:18.904Z,23.93
2018-05-29T14:26:48.672Z,24.03
2018-05-29T14:32:07.241Z,24.22
2018-05-29T14:34:39.716Z,24.02
2018-05-29T14:37:11.345Z,23.71
2018-05-29T14:39:43.167Z,23.51
2018-05-29T14:42:11.965Z,24.00
2018-05-29T14:44:43.983Z,21.43
2018-05-29T14:47:17.958Z,22.57
2018-05-29T14:49:50.490Z,22.96
2018-05-29T14:52:19.801Z,22.98
2018-05-29T14:54:57.009Z,22.61
2018-05-29T14:57:28.106Z,22.14
2018-05-29T14:59:59.352Z,21.93
2018-05-29T15:02:29.709Z,21.86
2018-05-29T15:05:12.658Z,21.41
2018-05-29T15:07:44.743Z,21.04
2018-05-29T15:10:21.909Z,19.40
2018-05-29T15:12:56.892Z,18.97
2018-05-29T15:15:26.280Z,20.36
2018-05-29T15:18:02.914Z,19.38
2018-05-29T15:23:21.697Z,21.18
2018-05-29T15:25:58.029Z,21.27
2018-05-29T15:28:30.206Z,21.39
2018-05-29T15:31:00.383Z,21.48
2018-05-29T15:33:35.501Z,21.30
2018-05-29T15:41:51.863Z,19.20
2018-05-29T15:44:35.861Z,19.43
2018-05-29T15:47:13.189Z,21.48
2018-05-29T15:49:42.702Z,21.16
2018-05-29T15:52:12.699Z,21.62
2018-05-29T15:54:52.637Z,21.73
2018-05-29T15:57:25.443Z,22.34
2018-05-29T15:59:55.948Z,22.55
2018-05-29T16:02:25.227Z,22.47
2018-05-29T16:04:56.393Z,22.40
2018-05-29T16:07:26.438Z,22.98
2018-05-29T16:10:03.559Z,23.00
2018-05-29T16:12:33.626Z,23.15
2018-05-29T16:15:04.467Z,23.39
2018-05-29T16:17:33.471Z,23.63
2018-05-29T16:20:06.136Z,23.77
2018-05-29T16:22:36.158Z,23.87
2018-05-29T16:25:05.366Z,23.83
2018-05-29T16:27:40.194Z,23.77
2018-05-29T16:30:18.813Z,23.98
2018-05-29T16:32:56.180Z,24.02
2018-05-29T16:35:25.230Z,23.55
2018-05-29T16:37:58.371Z,24.04
2018-05-29T16:40:27.519Z,24.23
2018-05-29T16:42:56.590Z,24.41
2018-05-29T16:45:25.468Z,24.34
2018-05-29T16:47:54.854Z,24.40
2018-05-29T16:50:31.216Z,24.22
2018-05-29T16:53:01.689Z,24.03
2018-05-29T16:55:33.873Z,24.17
2018-05-29T16:58:04.486Z,24.35
2018-05-29T17:00:34.116Z,24.93
2018-05-29T17:03:04.129Z,22.62
2018-05-29T17:05:36.917Z,25.04
2018-05-29T17:08:13.213Z,25.71
2018-05-29T17:10:47.055Z,25.98
2018-05-29T17:13:24.814Z,26.02
2018-05-29T17:15:55.020Z,26.23
2018-05-29T17:21:18.472Z,26.99
2018-05-29T17:26:41.114Z,28.16
2018-05-29T17:29:11.679Z,26.43
2018-05-29T17:31:41.856Z,28.08
2018-05-29T17:34:18.764Z,28.69
2018-05-29T17:37:06.365Z,29.78
2018-05-29T17:39:36.939Z,30.32
2018-05-29T17:42:07.025Z,30.70
2018-05-29T17:44:36.740Z,31.31
2018-05-29T17:47:08.217Z,31.98
2018-05-29T17:49:37.542Z,32.63
2018-05-29T17:52:09.592Z,32.99
2018-05-29T17:54:42.763Z,33.16
2018-05-29T17:57:18.222Z,33.41
2018-05-29T17:59:51.203Z,33.85
2018-05-29T18:02:20.452Z,34.14
2018-05-29T18:04:51.827Z,34.63
2018-05-29T18:07:24.592Z,35.00
2018-05-29T18:09:53.805Z,35.71
2018-05-29T18:12:24.084Z,36.17
2018-05-29T18:14:54.480Z,36.56
2018-05-29T18:17:24.940Z,36.82
2018-05-29T18:19:54.812Z,36.71
2018-05-29T18:22:28.393Z,36.96
2018-05-29T18:24:57.775Z,36.25
2018-05-29T18:27:31.352Z,37.75
2018-05-29T18:30:00.450Z,38.11
2018-05-29T18:32:31.966Z,38.52
2018-05-29T18:35:03.348Z,39.02
2018-05-29T18:37:35.572Z,39.34
2018-05-29T18:40:09.398Z,39.55
2018-05-29T18:42:41.645Z,38.91
2018-05-29T18:45:13.292Z,39.28
2018-05-29T18:47:45.778Z,41.11
2018-05-29T18:53:11.403Z,42.11
2018-05-29T18:55:41.516Z,42.30
2018-05-29T18:58:17.315Z,42.52
2018-05-29T19:00:47.812Z,43.01
2018-05-29T19:03:24.526Z,43.30
2018-05-29T19:05:54.103Z,43.36
2018-05-29T19:11:19.933Z,44.43
2018-05-29T19:13:51.890Z,44.99
2018-05-29T19:16:23.563Z,45.46
2018-05-29T19:18:57.984Z,46.93
2018-05-29T19:21:44.587Z,46.68
2018-05-29T19:24:19.259Z,49.90
2018-05-29T19:26:50.963Z,47.67
2018-05-29T19:29:21.421Z,49.32
2018-05-29T19:31:54.913Z,50.33
2018-05-29T19:34:25.665Z,49.74
2018-05-29T19:37:02.372Z,51.06
2018-05-29T19:42:22.975Z,51.09
2018-05-29T19:44:57.862Z,51.31
2018-05-29T19:47:31.243Z,52.67
2018-05-29T19:50:07.321Z,51.31
2018-05-29T19:52:49.891Z,52.83
2018-05-29T19:55:31.870Z,53.46
2018-05-29T19:58:06.780Z,54.00
2018-05-29T20:00:40.772Z,51.92
2018-05-29T20:03:14.033Z,53.76
2018-05-29T20:05:53.410Z,54.12
2018-05-29T20:08:23.764Z,54.88
2018-05-29T20:10:54.001Z,54.18
2018-05-29T20:13:23.272Z,54.69
2018-05-29T20:15:56.966Z,53.97
2018-05-29T20:18:29.001Z,53.72
2018-05-29T20:20:58.470Z,52.20
2018-05-29T20:23:32.680Z,53.63
2018-05-29T20:26:02.690Z,53.93
2018-05-29T20:28:38.348Z,54.07
2018-05-29T20:31:08.145Z,54.09
2018-05-29T20:33:38.925Z,54.55
2018-05-29T20:36:09.140Z,53.13
2018-05-29T20:38:41.573Z,54.51
2018-05-29T20:41:16.177Z,54.54
2018-05-29T20:43:49.516Z,54.50
2018-05-29T20:46:29.816Z,53.46
2018-05-29T20:49:02.386Z,54.19
2018-05-29T20:51:37.709Z,54.11
2018-05-29T20:54:19.756Z,54.05
2018-05-29T20:56:51.547Z,53.96
2018-05-29T20:59:37.166Z,54.07
2018-05-29T21:02:09.217Z,54.16
2018-05-29T21:04:39.238Z,53.24
2018-05-29T21:07:09.957Z,53.09
2018-05-29T21:09:48.662Z,54.30
2018-05-29T21:12:20.040Z,54.65
2018-05-29T21:14:49.984Z,54.77
2018-05-29T21:17:22.847Z,54.70
2018-05-29T21:19:54.813Z,54.65
2018-05-29T21:22:25.762Z,53.36
2018-05-29T21:24:57.237Z,52.96
2018-05-29T21:27:27.600Z,52.82
2018-05-29T21:29:56.794Z,52.68
2018-05-29T21:32:37.016Z,53.88
2018-05-29T21:35:08.287Z,54.39
2018-05-29T21:37:41.180Z,54.47
2018-05-29T21:40:13.946Z,54.70
2018-05-29T21:42:46.381Z,55.07
2018-05-29T21:45:18.744Z,55.45
2018-05-29T21:47:49.133Z,54.85
2018-05-29T21:50:20.000Z,54.87
2018-05-29T21:52:51.567Z,56.10
2018-05-29T21:55:24.762Z,55.18
2018-05-29T21:57:53.953Z,54.97
2018-05-29T22:00:40.063Z,56.16
2018-05-29T22:03:10.444Z,56.45
2018-05-29T22:05:59.078Z,56.41
2018-05-29T22:08:36.504Z,56.70
2018-05-29T22:11:06.911Z,56.87
2018-05-29T22:13:37.530Z,56.79
2018-05-29T22:16:09.072Z,57.31
2018-05-29T22:18:39.222Z,56.88
2018-05-29T22:21:10.835Z,58.16
2018-05-29T22:23:40.390Z,58.45
2018-05-29T22:26:18.958Z,58.58
2018-05-29T22:28:58.311Z,58.83
2018-05-29T22:34:26.176Z,58.55
2018-05-29T22:36:56.421Z,58.71
2018-05-29T22:39:27.274Z,58.86
2018-05-29T22:42:00.424Z,58.88
2018-05-29T22:44:29.612Z,58.65
2018-05-29T22:47:00.186Z,59.00
2018-05-29T22:49:30.735Z,58.30
2018-05-29T22:52:10.921Z,60.29
2018-05-29T22:54:45.045Z,58.73
2018-05-29T22:57:14.256Z,59.44
2018-05-29T22:59:44.473Z,60.15
2018-05-29T23:02:14.371Z,59.97
2018-05-29T23:04:44.932Z,61.37
2018-05-29T23:07:28.642Z,62.00
2018-05-29T23:09:58.481Z,60.26
2018-05-29T23:12:31.780Z,59.59
2018-05-29T23:15:02.922Z,61.35
2018-05-29T23:17:32.408Z,59.36
2018-05-29T23:20:01.654Z,62.01
2018-05-29T23:22:33.114Z,62.21
2018-05-29T23:25:04.650Z,62.70
2018-05-29T23:27:37.617Z,62.94
2018-05-29T23:30:07.744Z,63.39
2018-05-29T23:32:39.064Z,63.53
2018-05-29T23:35:08.434Z,63.67
2018-05-29T23:37:40.431Z,63.83
2018-05-29T23:40:13.260Z,63.73
2018-05-29T23:42:48.074Z,62.46
2018-05-29T23:45:18.474Z,63.69
2018-05-29T23:47:49.074Z,64.04
2018-05-29T23:50:18.581Z,64.40
2018-05-29T23:52:52.972Z,64.57
2018-05-29T23:55:21.833Z,64.96
2018-05-29T23:57:51.565Z,65.05
